sensor_id;sensor_type;location;lat;lon;timestamp;pressure;altitude;pressure_sealevel;temperature;humidity
44103;BME280;29769;42.178;24.742;2022-12-13T00:00:20;98913.31;;;5.01;100.00
44103;BME280;29769;42.178;24.742;2022-12-13T00:03:05;98914.16;;;5.00;100.00
44103;BME280;29769;42.178;24.742;2022-12-13T00:05:50;98923.78;;;4.95;100.00
44103;BME280;29769;42.178;24.742;2022-12-13T00:08:35;98930.72;;;4.99;100.00
44103;BME280;29769;42.178;24.742;2022-12-13T00:11:19;98925.47;;;5.02;100.00
44103;BME280;29769;42.178;24.742;2022-12-13T00:14:05;98913.25;;;5.10;100.00
44103;BME280;29769;42.178;24.742;2022-12-13T00:16:49;98916.72;;;5.09;100.00
44103;BME280;29769;42.178;24.742;2022-12-13T00:19:34;98910.69;;;5.03;100.00
44103;BME280;29769;42.178;24.742;2022-12-13T00:22:18;98918.56;;;4.93;100.00
44103;BME280;29769;42.178;24.742;2022-12-13T00:25:03;98908.19;;;4.83;100.00
44103;BME280;29769;42.178;24.742;2022-12-13T00:27:48;98931.69;;;4.77;100.00
44103;BME280;29769;42.178;24.742;2022-12-13T00:30:33;98946.47;;;4.72;100.00
44103;BME280;29769;42.178;24.742;2022-12-13T00:33:18;98932.56;;;4.70;100.00
44103;BME280;29769;42.178;24.742;2022-12-13T00:36:03;98945.59;;;4.76;100.00
44103;BME280;29769;42.178;24.742;2022-12-13T00:38:48;98943.84;;;4.76;100.00
44103;BME280;29769;42.178;24.742;2022-12-13T00:41:43;98938.66;;;4.72;100.00
44103;BME280;29769;42.178;24.742;2022-12-13T00:44:28;98938.66;;;4.69;100.00
44103;BME280;29769;42.178;24.742;2022-12-13T00:47:13;98945.66;;;4.58;100.00
44103;BME280;29769;42.178;24.742;2022-12-13T00:49:58;98943.91;;;4.51;100.00
44103;BME280;29769;42.178;24.742;2022-12-13T00:52:43;98960.44;;;4.48;100.00
44103;BME280;29769;42.178;24.742;2022-12-13T00:55:27;98959.56;;;4.41;100.00
44103;BME280;29769;42.178;24.742;2022-12-13T00:58:12;98957.84;;;4.43;100.00
44103;BME280;29769;42.178;24.742;2022-12-13T01:01:03;98987.38;;;4.33;100.00
44103;BME280;29769;42.178;24.742;2022-12-13T01:03:48;98967.41;;;4.32;100.00
44103;BME280;29769;42.178;24.742;2022-12-13T01:09:21;98988.25;;;4.25;100.00
44103;BME280;29769;42.178;24.742;2022-12-13T01:12:07;98992.59;;;4.24;100.00
44103;BME280;29769;42.178;24.742;2022-12-13T01:14:54;98970.91;;;4.25;100.00
44103;BME280;29769;42.178;24.742;2022-12-13T01:17:39;98992.59;;;4.26;100.00
44103;BME280;29769;42.178;24.742;2022-12-13T01:20:23;98970.03;;;4.29;100.00
44103;BME280;29769;42.178;24.742;2022-12-13T01:23:08;98998.69;;;4.08;100.00
44103;BME280;29769;42.178;24.742;2022-12-13T01:25:52;98997.81;;;3.97;100.00
44103;BME280;29769;42.178;24.742;2022-12-13T01:28:37;98997.78;;;3.91;100.00
44103;BME280;29769;42.178;24.742;2022-12-13T01:31:22;98988.25;;;3.87;100.00
44103;BME280;29769;42.178;24.742;2022-12-13T01:34:07;99004.75;;;3.83;100.00
44103;BME280;29769;42.178;24.742;2022-12-13T01:36:54;98983.94;;;3.86;100.00
44103;BME280;29769;42.178;24.742;2022-12-13T01:39:38;98995.19;;;3.82;100.00
44103;BME280;29769;42.178;24.742;2022-12-13T01:42:23;98978.72;;;3.89;100.00
44103;BME280;29769;42.178;24.742;2022-12-13T01:45:19;99003.88;;;3.94;100.00
44103;BME280;29769;42.178;24.742;2022-12-13T01:48:06;99009.94;;;3.92;100.00
44103;BME280;29769;42.178;24.742;2022-12-13T01:50:53;99033.38;;;3.77;100.00
44103;BME280;29769;42.178;24.742;2022-12-13T01:53:39;99025.56;;;3.72;100.00
44103;BME280;29769;42.178;24.742;2022-12-13T01:56:27;99023.78;;;3.65;100.00
44103;BME280;29769;42.178;24.742;2022-12-13T01:59:13;99005.56;;;3.64;100.00
44103;BME280;29769;42.178;24.742;2022-12-13T02:02:04;99034.19;;;3.57;100.00
44103;BME280;29769;42.178;24.742;2022-12-13T02:05:09;99002.97;;;3.53;100.00
44103;BME280;29769;42.178;24.742;2022-12-13T02:07:58;99021.16;;;3.54;100.00
44103;BME280;29769;42.178;24.742;2022-12-13T02:10:44;99015.09;;;3.45;100.00
44103;BME280;29769;42.178;24.742;2022-12-13T02:13:29;98999.50;;;3.48;100.00
44103;BME280;29769;42.178;24.742;2022-12-13T02:27:58;99020.34;;;3.96;100.00
44103;BME280;29769;42.178;24.742;2022-12-13T02:30:50;99024.72;;;3.94;100.00
44103;BME280;29769;42.178;24.742;2022-12-13T02:33:38;99016.88;;;3.93;100.00
44103;BME280;29769;42.178;24.742;2022-12-13T02:36:28;99025.56;;;3.90;100.00
44103;BME280;29769;42.178;24.742;2022-12-13T02:39:18;99043.78;;;3.86;100.00
44103;BME280;29769;42.178;24.742;2022-12-13T02:42:06;98995.16;;;3.54;100.00
44103;BME280;29769;42.178;24.742;2022-12-13T02:44:57;99020.34;;;3.84;100.00
44103;BME280;29769;42.178;24.742;2022-12-13T02:47:46;99027.31;;;3.81;100.00
44103;BME280;29769;42.178;24.742;2022-12-13T02:50:32;99008.19;;;3.68;100.00
44103;BME280;29769;42.178;24.742;2022-12-13T02:53:18;99036.81;;;3.67;100.00
44103;BME280;29769;42.178;24.742;2022-12-13T02:56:04;99044.63;;;3.67;100.00
44103;BME280;29769;42.178;24.742;2022-12-13T02:58:50;99055.84;;;3.56;100.00
44103;BME280;29769;42.178;24.742;2022-12-13T03:07:16;99068.00;;;3.53;100.00
44103;BME280;29769;42.178;24.742;2022-12-13T03:10:07;99065.38;;;3.54;100.00
44103;BME280;29769;42.178;24.742;2022-12-13T03:13:00;99072.31;;;3.51;100.00
44103;BME280;29769;42.178;24.742;2022-12-13T03:18:57;99022.88;;;3.37;100.00
44103;BME280;29769;42.178;24.742;2022-12-13T03:21:43;99069.69;;;3.36;100.00
44103;BME280;29769;42.178;24.742;2022-12-13T03:24:29;99061.88;;;3.46;100.00
44103;BME280;29769;42.178;24.742;2022-12-13T03:27:13;99061.88;;;3.46;100.00
44103;BME280;29769;42.178;24.742;2022-12-13T03:29:58;99083.56;;;3.51;100.00
44103;BME280;29769;42.178;24.742;2022-12-13T03:32:43;99074.06;;;3.58;100.00
44103;BME280;29769;42.178;24.742;2022-12-13T03:35:27;99090.56;;;3.68;100.00
44103;BME280;29769;42.178;24.742;2022-12-13T03:38:13;99083.63;;;3.67;100.00
44103;BME280;29769;42.178;24.742;2022-12-13T03:40:58;99077.56;;;3.71;100.00
44103;BME280;29769;42.178;24.742;2022-12-13T03:43:44;99071.47;;;3.69;100.00
44103;BME280;29769;42.178;24.742;2022-12-13T03:46:30;99069.75;;;3.71;100.00
44103;BME280;29769;42.178;24.742;2022-12-13T03:49:15;99078.41;;;3.64;100.00
44103;BME280;29769;42.178;24.742;2022-12-13T03:51:59;99074.94;;;3.60;100.00
44103;BME280;29769;42.178;24.742;2022-12-13T03:54:44;99067.97;;;3.51;100.00
44103;BME280;29769;42.178;24.742;2022-12-13T03:57:28;99073.16;;;3.45;100.00
44103;BME280;29769;42.178;24.742;2022-12-13T04:00:13;99090.47;;;3.37;100.00
44103;BME280;29769;42.178;24.742;2022-12-13T04:02:58;99074.88;;;3.36;100.00
44103;BME280;29769;42.178;24.742;2022-12-13T04:05:42;99067.88;;;3.27;100.00
44103;BME280;29769;42.178;24.742;2022-12-13T04:08:27;99079.19;;;3.31;100.00
44103;BME280;29769;42.178;24.742;2022-12-13T04:11:11;99067.03;;;3.27;100.00
44103;BME280;29769;42.178;24.742;2022-12-13T04:14:14;99067.88;;;3.27;100.00
44103;BME280;29769;42.178;24.742;2022-12-13T04:16:59;99080.06;;;3.34;100.00
44103;BME280;29769;42.178;24.742;2022-12-13T04:19:43;99075.72;;;3.35;100.00
44103;BME280;29769;42.178;24.742;2022-12-13T04:22:27;99054.91;;;3.33;100.00
44103;BME280;29769;42.178;24.742;2022-12-13T04:25:12;99076.59;;;3.35;100.00
44103;BME280;29769;42.178;24.742;2022-12-13T04:27:57;99081.81;;;3.35;100.00
44103;BME280;29769;42.178;24.742;2022-12-13T04:30:42;99048.00;;;3.34;100.00
44103;BME280;29769;42.178;24.742;2022-12-13T04:33:27;99081.78;;;3.34;100.00
44103;BME280;29769;42.178;24.742;2022-12-13T04:36:11;99079.19;;;3.31;100.00
44103;BME280;29769;42.178;24.742;2022-12-13T04:39:03;99067.91;;;3.33;100.00
44103;BME280;29769;42.178;24.742;2022-12-13T04:41:48;99087.84;;;3.30;100.00
44103;BME280;29769;42.178;24.742;2022-12-13T04:44:33;99095.59;;;3.24;100.00
44103;BME280;29769;42.178;24.742;2022-12-13T04:47:18;99100.81;;;3.22;100.00
44103;BME280;29769;42.178;24.742;2022-12-13T04:50:03;99105.13;;;3.23;100.00
44103;BME280;29769;42.178;24.742;2022-12-13T04:52:47;99126.81;;;3.22;100.00
44103;BME280;29769;42.178;24.742;2022-12-13T04:55:32;99120.72;;;3.20;100.00
44103;BME280;29769;42.178;24.742;2022-12-13T04:58:17;99128.50;;;3.20;100.00
44103;BME280;29769;42.178;24.742;2022-12-13T05:01:04;99106.00;;;3.28;100.00
44103;BME280;29769;42.178;24.742;2022-12-13T05:03:49;99115.56;;;3.26;100.00
44103;BME280;29769;42.178;24.742;2022-12-13T05:06:34;99099.97;;;3.31;100.00
44103;BME280;29769;42.178;24.742;2022-12-13T05:09:18;99120.78;;;3.31;100.00
44103;BME280;29769;42.178;24.742;2022-12-13T05:12:03;99133.78;;;3.31;100.00
44103;BME280;29769;42.178;24.742;2022-12-13T05:14:48;99135.47;;;3.27;100.00
44103;BME280;29769;42.178;24.742;2022-12-13T05:17:33;99149.34;;;3.29;100.00
44103;BME280;29769;42.178;24.742;2022-12-13T05:20:17;99117.28;;;3.29;100.00
44103;BME280;29769;42.178;24.742;2022-12-13T05:23:02;99156.25;;;3.27;100.00
44103;BME280;29769;42.178;24.742;2022-12-13T05:25:46;99159.69;;;3.20;100.00
44103;BME280;29769;42.178;24.742;2022-12-13T05:28:31;99166.59;;;3.15;100.00
44103;BME280;29769;42.178;24.742;2022-12-13T05:31:16;99179.53;;;3.06;100.00
44103;BME280;29769;42.178;24.742;2022-12-13T05:34:01;99166.53;;;3.03;100.00
44103;BME280;29769;42.178;24.742;2022-12-13T05:36:45;99171.69;;;2.97;100.00
44103;BME280;29769;42.178;24.742;2022-12-13T05:39:29;99173.38;;;2.93;100.00
44103;BME280;29769;42.178;24.742;2022-12-13T05:42:14;99186.31;;;2.87;100.00
44103;BME280;29769;42.178;24.742;2022-12-13T05:44:58;99186.28;;;2.80;100.00
44103;BME280;29769;42.178;24.742;2022-12-13T05:47:43;99194.88;;;2.74;100.00
44103;BME280;29769;42.178;24.742;2022-12-13T05:50:28;99190.56;;;2.72;100.00
44103;BME280;29769;42.178;24.742;2022-12-13T05:53:13;99205.25;;;2.71;100.00
44103;BME280;29769;42.178;24.742;2022-12-13T05:56:00;99207.84;;;2.69;100.00
44103;BME280;29769;42.178;24.742;2022-12-13T05:58:44;99174.09;;;2.71;100.00
44103;BME280;29769;42.178;24.742;2022-12-13T06:01:29;99218.25;;;2.73;100.00
44103;BME280;29769;42.178;24.742;2022-12-13T06:04:13;99203.53;;;2.73;100.00
44103;BME280;29769;42.178;24.742;2022-12-13T06:06:58;99220.88;;;2.77;100.00
44103;BME280;29769;42.178;24.742;2022-12-13T06:09:43;99236.53;;;2.85;100.00
44103;BME280;29769;42.178;24.742;2022-12-13T06:12:27;99221.84;;;2.88;100.00
44103;BME280;29769;42.178;24.742;2022-12-13T06:15:12;99234.81;;;2.85;100.00
44103;BME280;29769;42.178;24.742;2022-12-13T06:18:00;99225.31;;;2.86;100.00
44103;BME280;29769;42.178;24.742;2022-12-13T06:20:54;99237.38;;;2.82;100.00
44103;BME280;29769;42.178;24.742;2022-12-13T06:23:39;99236.53;;;2.85;100.00
44103;BME280;29769;42.178;24.742;2022-12-13T06:26:24;99240.88;;;2.87;100.00
44103;BME280;29769;42.178;24.742;2022-12-13T06:29:08;99229.63;;;2.85;100.00
44103;BME280;29769;42.178;24.742;2022-12-13T06:31:55;99248.66;;;2.87;100.00
44103;BME280;29769;42.178;24.742;2022-12-13T06:34:40;99266.00;;;2.91;100.00
44103;BME280;29769;42.178;24.742;2022-12-13T06:37:24;99263.38;;;2.87;100.00
44103;BME280;29769;42.178;24.742;2022-12-13T06:40:09;99259.91;;;2.86;100.00
44103;BME280;29769;42.178;24.742;2022-12-13T06:42:54;99270.31;;;2.85;100.00
44103;BME280;29769;42.178;24.742;2022-12-13T06:45:38;99254.69;;;2.80;100.00
44103;BME280;29769;42.178;24.742;2022-12-13T06:48:24;99259.81;;;2.77;100.00
44103;BME280;29769;42.178;24.742;2022-12-13T06:51:09;99272.00;;;2.80;100.00
44103;BME280;29769;42.178;24.742;2022-12-13T06:53:54;99279.75;;;2.78;100.00
44103;BME280;29769;42.178;24.742;2022-12-13T06:56:39;99269.41;;;2.80;100.00
44103;BME280;29769;42.178;24.742;2022-12-13T06:59:24;99275.44;;;2.82;100.00
44103;BME280;29769;42.178;24.742;2022-12-13T07:02:09;99273.78;;;2.87;100.00
44103;BME280;29769;42.178;24.742;2022-12-13T07:04:54;99281.56;;;2.87;100.00
44103;BME280;29769;42.178;24.742;2022-12-13T07:07:39;99286.81;;;2.91;100.00
44103;BME280;29769;42.178;24.742;2022-12-13T07:10:23;99295.50;;;2.93;100.00
44103;BME280;29769;42.178;24.742;2022-12-13T07:13:08;99286.00;;;2.97;100.00
44103;BME280;29769;42.178;24.742;2022-12-13T07:15:53;99311.13;;;2.98;100.00
44103;BME280;29769;42.178;24.742;2022-12-13T07:18:37;99280.78;;;2.95;100.00
44103;BME280;29769;42.178;24.742;2022-12-13T07:21:23;99308.59;;;3.04;100.00
44103;BME280;29769;42.178;24.742;2022-12-13T07:24:07;99315.53;;;3.06;100.00
44103;BME280;29769;42.178;24.742;2022-12-13T07:26:52;99306.88;;;3.10;100.00
44103;BME280;29769;42.178;24.742;2022-12-13T07:29:38;99317.28;;;3.10;100.00
44103;BME280;29769;42.178;24.742;2022-12-13T07:32:23;99305.22;;;3.17;100.00
44103;BME280;29769;42.178;24.742;2022-12-13T07:35:07;99319.09;;;3.21;100.00
44103;BME280;29769;42.178;24.742;2022-12-13T07:37:52;99310.44;;;3.23;100.00
44103;BME280;29769;42.178;24.742;2022-12-13T07:40:37;99301.81;;;3.24;100.00
44103;BME280;29769;42.178;24.742;2022-12-13T07:43:22;99313.97;;;3.28;100.00
44103;BME280;29769;42.178;24.742;2022-12-13T07:46:08;99321.78;;;3.30;100.00
44103;BME280;29769;42.178;24.742;2022-12-13T07:48:52;99323.53;;;3.34;100.00
44103;BME280;29769;42.178;24.742;2022-12-13T07:51:37;99320.97;;;3.35;100.00
44103;BME280;29769;42.178;24.742;2022-12-13T07:54:22;99327.00;;;3.34;100.00
44103;BME280;29769;42.178;24.742;2022-12-13T07:57:07;99304.53;;;3.39;100.00
44103;BME280;29769;42.178;24.742;2022-12-13T07:59:51;99321.91;;;3.45;100.00
44103;BME280;29769;42.178;24.742;2022-12-13T08:02:36;99331.47;;;3.52;100.00
44103;BME280;29769;42.178;24.742;2022-12-13T08:05:22;99318.47;;;3.55;100.00
44103;BME280;29769;42.178;24.742;2022-12-13T08:08:08;99347.16;;;3.61;100.00
44103;BME280;29769;42.178;24.742;2022-12-13T08:10:53;99330.69;;;3.65;100.00
44103;BME280;29769;42.178;24.742;2022-12-13T08:13:38;99337.63;;;3.63;100.00
44103;BME280;29769;42.178;24.742;2022-12-13T08:16:24;99347.22;;;3.73;100.00
44103;BME280;29769;42.178;24.742;2022-12-13T08:19:08;99342.00;;;3.73;100.00
44103;BME280;29769;42.178;24.742;2022-12-13T08:21:53;99343.75;;;3.73;100.00
44103;BME280;29769;42.178;24.742;2022-12-13T08:24:39;99360.28;;;3.81;100.00
44103;BME280;29769;42.178;24.742;2022-12-13T08:27:24;99350.72;;;3.78;100.00
44103;BME280;29769;42.178;24.742;2022-12-13T08:30:09;99362.03;;;3.80;100.00
44103;BME280;29769;42.178;24.742;2022-12-13T08:32:53;99369.00;;;3.86;100.00
44103;BME280;29769;42.178;24.742;2022-12-13T08:35:39;99382.03;;;3.90;100.00
44103;BME280;29769;42.178;24.742;2022-12-13T08:38:24;99371.63;;;3.92;100.00
44103;BME280;29769;42.178;24.742;2022-12-13T08:41:09;99363.94;;;4.09;100.00
44103;BME280;29769;42.178;24.742;2022-12-13T08:43:53;99350.91;;;4.04;100.00
44103;BME280;29769;42.178;24.742;2022-12-13T08:46:38;99348.25;;;4.01;100.00
44103;BME280;29769;42.178;24.742;2022-12-13T08:49:23;99320.47;;;3.97;100.00
44103;BME280;29769;42.178;24.742;2022-12-13T08:52:07;99346.50;;;4.00;100.00
44103;BME280;29769;42.178;24.742;2022-12-13T08:54:52;99339.59;;;4.02;100.00
44103;BME280;29769;42.178;24.742;2022-12-13T08:57:37;99355.25;;;4.14;100.00
44103;BME280;29769;42.178;24.742;2022-12-13T09:00:22;99349.19;;;4.12;100.00
44103;BME280;29769;42.178;24.742;2022-12-13T09:03:06;99300.63;;;4.20;100.00
44103;BME280;29769;42.178;24.742;2022-12-13T09:05:51;99331.00;;;4.24;100.00
44103;BME280;29769;42.178;24.742;2022-12-13T09:08:37;99354.44;;;4.20;100.00
44103;BME280;29769;42.178;24.742;2022-12-13T09:11:22;99334.50;;;4.28;100.00
44103;BME280;29769;42.178;24.742;2022-12-13T09:14:07;99342.25;;;4.14;100.00
44103;BME280;29769;42.178;24.742;2022-12-13T09:16:52;99315.41;;;4.29;100.00
44103;BME280;29769;42.178;24.742;2022-12-13T09:19:37;99307.63;;;4.30;100.00
44103;BME280;29769;42.178;24.742;2022-12-13T09:22:21;99278.16;;;4.50;100.00
44103;BME280;29769;42.178;24.742;2022-12-13T09:25:07;99308.56;;;4.69;100.00
44103;BME280;29769;42.178;24.742;2022-12-13T09:27:52;99299.91;;;4.70;100.00
44103;BME280;29769;42.178;24.742;2022-12-13T09:30:37;99300.72;;;4.55;100.00
44103;BME280;29769;42.178;24.742;2022-12-13T09:33:22;99275.59;;;4.72;100.00
44103;BME280;29769;42.178;24.742;2022-12-13T09:36:09;99325.09;;;4.83;100.00
44103;BME280;29769;42.178;24.742;2022-12-13T09:38:54;99337.28;;;5.01;100.00
44103;BME280;29769;42.178;24.742;2022-12-13T09:41:45;99324.25;;;5.05;100.00
44103;BME280;29769;42.178;24.742;2022-12-13T09:45:13;99300.81;;;5.26;100.00
44103;BME280;29769;42.178;24.742;2022-12-13T09:47:43;99316.47;;;5.08;100.00
44103;BME280;29769;42.178;24.742;2022-12-13T09:50:58;99282.56;;;5.35;91.81
44103;BME280;29769;42.178;24.742;2022-12-13T09:53:52;99293.84;;;5.22;87.37
44103;BME280;29769;42.178;24.742;2022-12-13T09:56:37;99284.28;;;5.38;86.75
44103;BME280;29769;42.178;24.742;2022-12-13T09:59:29;99291.16;;;5.94;86.20
44103;BME280;29769;42.178;24.742;2022-12-13T10:02:20;99285.00;;;6.17;79.52
44103;BME280;29769;42.178;24.742;2022-12-13T10:08:13;99259.38;;;6.77;72.82
44103;BME280;29769;42.178;24.742;2022-12-13T10:10:58;99277.38;;;8.05;70.41
44103;BME280;29769;42.178;24.742;2022-12-13T10:19:46;99261.81;;;10.12;58.99
44103;BME280;29769;42.178;24.742;2022-12-13T10:22:34;99278.69;;;10.00;56.91
44103;BME280;29769;42.178;24.742;2022-12-13T10:25:38;99259.94;;;9.74;56.23
44103;BME280;29769;42.178;24.742;2022-12-13T10:28:28;99264.81;;;9.46;55.63
44103;BME280;29769;42.178;24.742;2022-12-13T10:31:16;99251.44;;;10.06;53.58
44103;BME280;29769;42.178;24.742;2022-12-13T10:34:00;99242.53;;;9.68;54.03
44103;BME280;29769;42.178;24.742;2022-12-13T10:36:45;99255.72;;;9.16;55.29
44103;BME280;29769;42.178;24.742;2022-12-13T10:39:37;99256.41;;;9.76;55.22
44103;BME280;29769;42.178;24.742;2022-12-13T10:42:21;99246.13;;;11.24;51.71
44103;BME280;29769;42.178;24.742;2022-12-13T10:45:08;99258.75;;;10.73;51.35
44103;BME280;29769;42.178;24.742;2022-12-13T10:47:54;99243.13;;;9.84;53.71
44103;BME280;29769;42.178;24.742;2022-12-13T10:50:38;99248.63;;;9.70;54.24
44103;BME280;29769;42.178;24.742;2022-12-13T10:53:23;99224.63;;;9.89;51.39
44103;BME280;29769;42.178;24.742;2022-12-13T10:56:11;99236.31;;;9.26;56.13
44103;BME280;29769;42.178;24.742;2022-12-13T10:59:10;99228.53;;;9.68;52.12
44103;BME280;29769;42.178;24.742;2022-12-13T11:01:54;99219.00;;;8.63;53.93
44103;BME280;29769;42.178;24.742;2022-12-13T11:04:39;99228.34;;;8.77;55.37
44103;BME280;29769;42.178;24.742;2022-12-13T11:13:03;99224.44;;;7.77;56.85
44103;BME280;29769;42.178;24.742;2022-12-13T11:15:50;99219.69;;;7.32;58.90
44103;BME280;29769;42.178;24.742;2022-12-13T11:18:37;99207.47;;;7.32;57.78
44103;BME280;29769;42.178;24.742;2022-12-13T11:21:27;99219.44;;;7.56;59.96
44103;BME280;29769;42.178;24.742;2022-12-13T11:24:16;99221.97;;;7.67;61.15
44103;BME280;29769;42.178;24.742;2022-12-13T11:38:35;99214.56;;;8.66;56.70
44103;BME280;29769;42.178;24.742;2022-12-13T11:41:33;99218.34;;;9.04;54.50
44103;BME280;29769;42.178;24.742;2022-12-13T11:47:28;99215.72;;;8.45;53.78
44103;BME280;29769;42.178;24.742;2022-12-13T11:50:16;99214.34;;;8.78;54.71
44103;BME280;29769;42.178;24.742;2022-12-13T11:53:21;99215.34;;;9.23;55.82
44103;BME280;29769;42.178;24.742;2022-12-13T12:01:45;99218.84;;;12.24;45.24
44103;BME280;29769;42.178;24.742;2022-12-13T12:04:50;99223.88;;;11.70;43.83
44103;BME280;29769;42.178;24.742;2022-12-13T12:07:40;99216.41;;;12.45;42.97
44103;BME280;29769;42.178;24.742;2022-12-13T12:10:29;99209.03;;;12.29;42.57
44103;BME280;29769;42.178;24.742;2022-12-13T12:19:19;99200.03;;;12.05;41.06
44103;BME280;29769;42.178;24.742;2022-12-13T12:28:08;99182.75;;;13.84;37.33
44103;BME280;29769;42.178;24.742;2022-12-13T12:34:12;99192.53;;;13.04;39.29
44103;BME280;29769;42.178;24.742;2022-12-13T12:37:10;99188.41;;;12.69;40.13
44103;BME280;29769;42.178;24.742;2022-12-13T12:42:49;99199.13;;;13.19;37.17
44103;BME280;29769;42.178;24.742;2022-12-13T12:58:14;99179.44;;;12.75;38.57
44103;BME280;29769;42.178;24.742;2022-12-13T13:03:34;99211.59;;;12.01;40.79
44103;BME280;29769;42.178;24.742;2022-12-13T13:06:21;99228.78;;;11.83;42.14
44103;BME280;29769;42.178;24.742;2022-12-13T13:09:08;99236.00;;;11.43;41.25
44103;BME280;29769;42.178;24.742;2022-12-13T13:11:54;99243.97;;;11.06;42.69
44103;BME280;29769;42.178;24.742;2022-12-13T13:14:39;99241.75;;;11.25;42.96
44103;BME280;29769;42.178;24.742;2022-12-13T13:20:15;99224.09;;;11.28;42.49
44103;BME280;29769;42.178;24.742;2022-12-13T13:23:00;99240.09;;;11.87;42.77
44103;BME280;29769;42.178;24.742;2022-12-13T13:25:56;99242.59;;;11.93;43.52
44103;BME280;29769;42.178;24.742;2022-12-13T13:28:41;99252.81;;;11.71;41.10
44103;BME280;29769;42.178;24.742;2022-12-13T13:31:25;99256.97;;;11.12;43.22
44103;BME280;29769;42.178;24.742;2022-12-13T13:34:23;99268.72;;;10.59;45.44
44103;BME280;29769;42.178;24.742;2022-12-13T14:04:08;99349.59;;;7.40;56.32
44103;BME280;29769;42.178;24.742;2022-12-13T14:21:06;99315.16;;;6.75;64.96
44103;BME280;29769;42.178;24.742;2022-12-13T14:24:04;99319.69;;;6.48;66.61
44103;BME280;29769;42.178;24.742;2022-12-13T14:29:39;99315.50;;;6.06;69.44
44103;BME280;29769;42.178;24.742;2022-12-13T14:32:28;99315.53;;;5.94;70.97
44103;BME280;29769;42.178;24.742;2022-12-13T14:35:20;99325.97;;;5.94;71.08
44103;BME280;29769;42.178;24.742;2022-12-13T14:38:18;99321.59;;;6.02;71.39
44103;BME280;29769;42.178;24.742;2022-12-13T14:41:04;99325.03;;;6.15;70.32
44103;BME280;29769;42.178;24.742;2022-12-13T14:43:49;99315.50;;;6.08;69.28
44103;BME280;29769;42.178;24.742;2022-12-13T14:46:34;99318.09;;;6.06;69.81
44103;BME280;29769;42.178;24.742;2022-12-13T14:49:19;99316.38;;;6.08;69.29
44103;BME280;29769;42.178;24.742;2022-12-13T14:52:17;99332.91;;;6.06;69.37
44103;BME280;29769;42.178;24.742;2022-12-13T14:55:03;99343.31;;;6.09;69.46
44103;BME280;29769;42.178;24.742;2022-12-13T14:57:53;99345.09;;;6.07;69.23
44103;BME280;29769;42.178;24.742;2022-12-13T15:00:38;99348.56;;;6.06;67.96
44103;BME280;29769;42.178;24.742;2022-12-13T15:03:23;99348.56;;;5.95;69.53
44103;BME280;29769;42.178;24.742;2022-12-13T15:06:08;99352.94;;;5.92;69.60
44103;BME280;29769;42.178;24.742;2022-12-13T15:08:54;99360.78;;;5.81;70.12
44103;BME280;29769;42.178;24.742;2022-12-13T15:11:42;99360.78;;;5.81;70.17
44103;BME280;29769;42.178;24.742;2022-12-13T15:14:27;99359.88;;;5.83;69.48
44103;BME280;29769;42.178;24.742;2022-12-13T15:20:32;99382.50;;;5.83;69.44
44103;BME280;29769;42.178;24.742;2022-12-13T15:23:34;99377.31;;;5.80;72.01
44103;BME280;29769;42.178;24.742;2022-12-13T15:26:24;99363.38;;;5.64;72.80
44103;BME280;29769;42.178;24.742;2022-12-13T15:29:09;99362.53;;;5.56;72.60
44103;BME280;29769;42.178;24.742;2022-12-13T15:31:58;99362.53;;;5.53;71.99
44103;BME280;29769;42.178;24.742;2022-12-13T15:34:44;99358.19;;;5.32;73.86
44103;BME280;29769;42.178;24.742;2022-12-13T15:37:30;99365.94;;;4.84;75.67
44103;BME280;29769;42.178;24.742;2022-12-13T15:40:16;99364.06;;;4.42;78.52
44103;BME280;29769;42.178;24.742;2022-12-13T15:43:01;99361.31;;;4.07;84.98
44103;BME280;29769;42.178;24.742;2022-12-13T15:45:46;99369.84;;;3.85;92.59
44103;BME280;29769;42.178;24.742;2022-12-13T15:48:32;99373.28;;;3.76;97.95
44103;BME280;29769;42.178;24.742;2022-12-13T15:51:19;99379.25;;;3.63;100.00
44103;BME280;29769;42.178;24.742;2022-12-13T15:54:24;99379.25;;;3.63;100.00
44103;BME280;29769;42.178;24.742;2022-12-13T16:03:03;99392.22;;;3.58;100.00
44103;BME280;29769;42.178;24.742;2022-12-13T16:05:49;99405.28;;;3.66;100.00
44103;BME280;29769;42.178;24.742;2022-12-13T16:08:36;99417.47;;;3.72;100.00
44103;BME280;29769;42.178;24.742;2022-12-13T16:14:25;99440.94;;;3.84;100.00
44103;BME280;29769;42.178;24.742;2022-12-13T16:17:24;99443.59;;;3.88;100.00
44103;BME280;29769;42.178;24.742;2022-12-13T16:20:13;99402.66;;;3.63;100.00
44103;BME280;29769;42.178;24.742;2022-12-13T16:22:58;99462.75;;;3.95;100.00
44103;BME280;29769;42.178;24.742;2022-12-13T16:25:42;99476.56;;;3.92;100.00
44103;BME280;29769;42.178;24.742;2022-12-13T16:28:27;99480.13;;;3.99;100.00
44103;BME280;29769;42.178;24.742;2022-12-13T16:31:19;99484.41;;;3.97;100.00
44103;BME280;29769;42.178;24.742;2022-12-13T16:34:04;99487.00;;;3.92;100.00
44103;BME280;29769;42.178;24.742;2022-12-13T16:36:49;99481.72;;;3.83;100.00
44103;BME280;29769;42.178;24.742;2022-12-13T16:39:34;99486.84;;;3.77;100.00
44103;BME280;29769;42.178;24.742;2022-12-13T16:42:18;99497.25;;;3.77;100.00
44103;BME280;29769;42.178;24.742;2022-12-13T16:45:03;99498.94;;;3.71;100.00
44103;BME280;29769;42.178;24.742;2022-12-13T16:47:48;99501.47;;;3.65;100.00
44103;BME280;29769;42.178;24.742;2022-12-13T16:50:33;99493.50;;;3.46;100.00
44103;BME280;29769;42.178;24.742;2022-12-13T16:53:18;99500.38;;;3.41;100.00
44103;BME280;29769;42.178;24.742;2022-12-13T16:56:03;99515.94;;;3.35;100.00
44103;BME280;29769;42.178;24.742;2022-12-13T16:58:48;99510.63;;;3.25;100.00
44103;BME280;29769;42.178;24.742;2022-12-13T17:01:33;99498.44;;;3.21;100.00
44103;BME280;29769;42.178;24.742;2022-12-13T17:04:20;99500.19;;;3.22;100.00